createdAt,value
2018-03-15T00:00:16.480Z,6.90
2018-03-15T00:02:25.611Z,6.77
2018-03-15T00:04:35.308Z,7.00
2018-03-15T00:06:38.908Z,6.83
2018-03-15T00:08:42.453Z,6.60
2018-03-15T00:10:45.993Z,7.70
2018-03-15T00:12:49.513Z,7.53
2018-03-15T00:14:53.837Z,8.27
2018-03-15T00:16:58.149Z,7.80
2018-03-15T00:19:01.716Z,8.23
2018-03-15T00:21:05.283Z,7.70
2018-03-15T00:23:08.856Z,8.40
2018-03-15T00:25:12.465Z,8.47
2018-03-15T00:27:15.990Z,8.07
2018-03-15T00:29:19.547Z,9.40
2018-03-15T00:31:23.143Z,8.23
2018-03-15T00:33:26.685Z,9.40
2018-03-15T00:35:30.271Z,8.57
2018-03-15T00:37:34.613Z,9.43
2018-03-15T00:39:38.988Z,9.90
2018-03-15T00:41:42.551Z,10.23
2018-03-15T00:43:46.038Z,10.30
2018-03-15T00:45:49.655Z,9.97
2018-03-15T00:47:53.212Z,9.73
2018-03-15T00:49:56.727Z,9.87
2018-03-15T00:52:00.327Z,10.83
2018-03-15T00:54:03.860Z,10.70
2018-03-15T00:56:07.419Z,11.27
2018-03-15T00:58:11.835Z,11.03
2018-03-15T01:00:15.401Z,11.13
2018-03-15T01:02:18.986Z,10.93
2018-03-15T01:04:23.265Z,10.93
2018-03-15T01:06:26.777Z,11.83
2018-03-15T01:08:30.333Z,11.63
2018-03-15T01:10:33.922Z,10.93
2018-03-15T01:12:37.499Z,10.67
2018-03-15T01:14:41.866Z,11.20
2018-03-15T01:16:45.387Z,11.60
2018-03-15T01:18:48.972Z,12.10
2018-03-15T01:20:52.687Z,12.20
2018-03-15T01:22:56.220Z,13.20
2018-03-15T01:24:59.780Z,10.67
2018-03-15T01:27:03.330Z,13.50
2018-03-15T01:29:06.872Z,11.73
2018-03-15T01:31:10.409Z,11.70
2018-03-15T01:33:13.981Z,11.80
2018-03-15T01:35:17.502Z,10.83
2018-03-15T01:37:21.064Z,12.60
2018-03-15T01:39:24.649Z,12.57
2018-03-15T01:41:28.976Z,12.33
2018-03-15T01:43:33.298Z,11.10
2018-03-15T01:45:37.655Z,13.50
2018-03-15T01:47:41.139Z,12.57
2018-03-15T01:49:44.713Z,12.23
2018-03-15T01:51:49.002Z,12.83
2018-03-15T01:53:52.570Z,13.00
2018-03-15T01:55:56.156Z,12.83
2018-03-15T01:57:59.700Z,13.33
2018-03-15T02:00:03.247Z,12.93
2018-03-15T02:02:06.899Z,12.00
2018-03-15T02:04:10.418Z,12.63
2018-03-15T02:06:14.013Z,13.10
2018-03-15T02:08:17.583Z,12.00
2018-03-15T02:10:21.138Z,11.83
2018-03-15T02:12:24.743Z,12.00
2018-03-15T02:14:28.299Z,13.50
2018-03-15T02:16:31.855Z,11.87
2018-03-15T02:18:36.219Z,10.67
2018-03-15T02:20:39.742Z,12.20
2018-03-15T02:22:43.251Z,11.37
2018-03-15T02:24:46.801Z,11.37
2018-03-15T02:26:50.348Z,11.97
2018-03-15T02:28:54.688Z,11.63
2018-03-15T02:30:58.237Z,11.70
2018-03-15T02:33:01.806Z,12.47
2018-03-15T02:35:05.374Z,11.40
2018-03-15T02:37:08.904Z,11.77
2018-03-15T02:39:12.516Z,11.63
2018-03-15T02:41:16.029Z,11.07
2018-03-15T02:43:19.554Z,12.00
2018-03-15T02:45:32.977Z,12.47
2018-03-15T02:47:40.929Z,12.40
2018-03-15T02:49:49.990Z,10.07
2018-03-15T02:51:53.496Z,11.37
2018-03-15T02:53:57.095Z,9.70
2018-03-15T02:56:00.711Z,10.93
2018-03-15T02:58:04.272Z,10.87
2018-03-15T03:00:08.655Z,10.77
2018-03-15T03:02:12.214Z,11.33
2018-03-15T03:04:15.853Z,10.97
2018-03-15T03:06:19.407Z,10.93
2018-03-15T03:08:22.957Z,12.00
2018-03-15T03:10:26.558Z,11.17
2018-03-15T03:12:30.094Z,11.87
2018-03-15T03:14:34.415Z,11.10
2018-03-15T03:16:37.904Z,12.20
2018-03-15T03:18:41.406Z,11.20
2018-03-15T03:20:44.966Z,11.97
2018-03-15T03:22:49.316Z,10.33
2018-03-15T03:24:52.896Z,12.33
2018-03-15T03:26:56.474Z,11.80
2018-03-15T03:29:00.046Z,11.43
2018-03-15T03:31:03.542Z,11.93
2018-03-15T03:33:07.045Z,11.37
2018-03-15T03:35:11.415Z,11.27
2018-03-15T03:37:15.005Z,11.97
2018-03-15T03:39:18.531Z,10.27
2018-03-15T03:41:22.116Z,9.40
2018-03-15T03:43:25.641Z,11.33
2018-03-15T03:45:29.243Z,11.47
2018-03-15T03:47:33.555Z,11.23
2018-03-15T03:49:37.090Z,11.80
2018-03-15T03:51:40.626Z,11.30
2018-03-15T03:53:44.203Z,10.87
2018-03-15T03:55:48.081Z,11.13
2018-03-15T03:57:51.833Z,12.03
2018-03-15T03:59:55.672Z,10.93
2018-03-15T04:01:59.168Z,11.97
2018-03-15T04:04:02.760Z,9.40
2018-03-15T04:06:06.340Z,11.53
2018-03-15T04:08:12.244Z,11.30
2018-03-15T04:10:15.795Z,11.07
2018-03-15T04:12:20.178Z,11.40
2018-03-15T04:14:24.527Z,11.20
2018-03-15T04:16:28.097Z,12.27
2018-03-15T04:18:31.648Z,10.93
2018-03-15T04:20:35.606Z,12.90
2018-03-15T04:22:39.244Z,11.40
2018-03-15T04:24:42.773Z,11.87
2018-03-15T04:26:46.345Z,12.57
2018-03-15T04:28:49.989Z,13.07
2018-03-15T04:30:53.529Z,12.87
2018-03-15T04:32:57.098Z,12.53
2018-03-15T04:35:00.721Z,11.57
2018-03-15T04:37:04.320Z,13.33
2018-03-15T04:39:07.866Z,10.57
2018-03-15T04:41:11.394Z,12.27
2018-03-15T04:43:15.749Z,12.20
2018-03-15T04:45:19.325Z,11.93
2018-03-15T04:47:22.875Z,12.50
2018-03-15T04:49:26.419Z,12.70
2018-03-15T04:51:29.968Z,11.47
2018-03-15T04:53:33.547Z,11.23
2018-03-15T04:55:37.074Z,12.07
2018-03-15T04:57:41.355Z,12.83
2018-03-15T04:59:44.982Z,12.13
2018-03-15T05:01:49.255Z,10.87
2018-03-15T05:03:52.826Z,10.83
2018-03-15T05:05:56.401Z,12.23
2018-03-15T05:07:59.951Z,11.47
2018-03-15T05:10:03.617Z,13.33
2018-03-15T05:12:07.163Z,12.33
2018-03-15T05:14:11.504Z,8.27
2018-03-15T05:16:15.831Z,11.23
2018-03-15T05:18:20.318Z,13.03
2018-03-15T05:20:25.519Z,13.70
2018-03-15T05:22:29.109Z,9.80
2018-03-15T05:24:33.127Z,10.90
2018-03-15T05:26:37.120Z,13.03
2018-03-15T05:28:41.295Z,13.47
2018-03-15T05:30:45.606Z,12.87
2018-03-15T05:32:49.155Z,12.17
2018-03-15T05:34:52.811Z,13.17
2018-03-15T05:36:56.571Z,13.53
2018-03-15T05:39:01.272Z,14.67
2018-03-15T05:41:05.287Z,15.50
2018-03-15T05:43:08.877Z,14.30
2018-03-15T05:45:12.598Z,13.53
2018-03-15T05:47:16.332Z,13.33
2018-03-15T05:49:20.215Z,15.07
2018-03-15T05:51:24.743Z,14.67
2018-03-15T05:53:28.420Z,16.10
2018-03-15T05:55:34.097Z,16.10
2018-03-15T05:57:38.140Z,13.37
2018-03-15T05:59:41.785Z,16.30
2018-03-15T06:01:45.729Z,16.43
2018-03-15T06:03:49.496Z,16.07
2018-03-15T06:05:53.792Z,15.57
2018-03-15T06:07:57.429Z,16.80
2018-03-15T06:10:00.996Z,17.60
2018-03-15T06:12:04.515Z,16.17
2018-03-15T06:14:08.098Z,17.33
2018-03-15T06:16:11.691Z,17.13
2018-03-15T06:18:16.016Z,17.03
2018-03-15T06:20:20.710Z,17.13
2018-03-15T06:22:24.867Z,17.83
2018-03-15T06:24:28.651Z,15.27
2018-03-15T06:26:33.485Z,17.33
2018-03-15T06:28:37.353Z,16.50
2018-03-15T06:30:41.164Z,17.43
2018-03-15T06:32:45.310Z,17.27
2018-03-15T06:34:49.176Z,16.37
2018-03-15T06:36:53.923Z,18.17
2018-03-15T06:38:57.757Z,16.10
2018-03-15T06:41:01.597Z,17.03
2018-03-15T06:43:05.689Z,16.53
2018-03-15T06:45:10.314Z,14.93
2018-03-15T06:47:15.198Z,18.27
2018-03-15T06:49:19.499Z,16.53
2018-03-15T06:51:23.746Z,15.07
2018-03-15T06:53:27.275Z,16.90
2018-03-15T06:55:32.132Z,15.63
2018-03-15T06:57:36.638Z,17.27
2018-03-15T06:59:40.221Z,17.53
2018-03-15T07:01:45.195Z,15.20
2018-03-15T07:03:49.621Z,14.80
2018-03-15T07:05:53.164Z,19.20
2018-03-15T07:07:56.887Z,17.13
2018-03-15T07:10:00.466Z,15.73
2018-03-15T07:12:04.154Z,15.97
2018-03-15T07:14:08.477Z,16.67
2018-03-15T07:16:12.068Z,14.47
2018-03-15T07:18:15.641Z,16.03
2018-03-15T07:20:19.174Z,16.37
2018-03-15T07:22:22.831Z,15.67
2018-03-15T07:24:26.345Z,14.80
2018-03-15T07:26:30.698Z,16.87
2018-03-15T07:28:34.214Z,14.20
2018-03-15T07:30:37.798Z,16.20
2018-03-15T07:32:41.418Z,16.70
2018-03-15T07:34:44.939Z,15.57
2018-03-15T07:36:49.264Z,17.93
2018-03-15T07:38:53.657Z,14.87
2018-03-15T07:40:57.190Z,16.53
2018-03-15T07:43:00.739Z,15.93
2018-03-15T07:45:05.135Z,13.52
2018-03-15T07:47:08.644Z,15.27
2018-03-15T07:49:12.252Z,16.07
2018-03-15T07:51:15.831Z,15.47
2018-03-15T07:53:19.382Z,16.77
2018-03-15T07:55:23.064Z,16.50
2018-03-15T07:57:27.385Z,15.23
2018-03-15T07:59:31.670Z,16.77
2018-03-15T08:01:35.309Z,14.47
2018-03-15T08:03:38.908Z,14.93
2018-03-15T08:05:42.408Z,15.60
2018-03-15T08:07:45.912Z,14.97
2018-03-15T08:09:49.458Z,15.47
2018-03-15T08:11:53.765Z,15.60
2018-03-15T08:13:58.143Z,16.60
2018-03-15T08:16:01.689Z,15.43
2018-03-15T08:18:05.981Z,15.27
2018-03-15T08:20:09.576Z,15.60
2018-03-15T08:22:13.158Z,18.07
2018-03-15T08:24:16.748Z,15.17
2018-03-15T08:26:20.321Z,14.43
2018-03-15T08:28:23.945Z,15.63
2018-03-15T08:30:28.308Z,11.97
2018-03-15T08:32:31.926Z,13.50
2018-03-15T08:34:35.513Z,14.67
2018-03-15T08:36:39.270Z,16.37
2018-03-15T08:38:43.631Z,14.13
2018-03-15T08:40:48.089Z,14.13
2018-03-15T08:42:51.681Z,16.03
2018-03-15T08:44:55.724Z,15.83
2018-03-15T08:47:00.158Z,16.90
2018-03-15T08:49:03.940Z,16.23
2018-03-15T08:51:07.690Z,14.87
2018-03-15T08:53:11.333Z,14.17
2018-03-15T08:55:14.854Z,14.90
2018-03-15T08:57:19.715Z,15.10
2018-03-15T08:59:23.466Z,14.97
2018-03-15T09:01:27.080Z,16.23
2018-03-15T09:03:30.670Z,15.50
2018-03-15T09:05:35.132Z,14.77
2018-03-15T09:07:38.539Z,14.87
2018-03-15T09:09:42.106Z,15.90
2018-03-15T09:11:45.603Z,15.70
2018-03-15T09:13:49.152Z,15.40
2018-03-15T09:15:52.697Z,14.07
2018-03-15T09:17:56.241Z,15.83
2018-03-15T09:20:00.588Z,16.70
2018-03-15T09:22:04.163Z,15.17
2018-03-15T09:24:08.523Z,14.77
2018-03-15T09:26:12.101Z,15.00
2018-03-15T09:28:15.650Z,16.50
2018-03-15T09:30:19.237Z,14.77
2018-03-15T09:32:22.867Z,12.70
2018-03-15T09:34:26.537Z,14.97
2018-03-15T09:36:30.061Z,12.87
2018-03-15T09:38:33.601Z,16.40
2018-03-15T09:40:37.196Z,15.27
2018-03-15T09:42:41.155Z,14.23
2018-03-15T09:44:45.021Z,12.80
2018-03-15T09:46:48.622Z,12.60
2018-03-15T09:48:52.978Z,15.43
2018-03-15T09:50:56.501Z,14.57
2018-03-15T09:53:00.083Z,16.07
2018-03-15T09:55:03.677Z,15.37
2018-03-15T09:57:07.315Z,14.50
2018-03-15T09:59:10.826Z,10.33
2018-03-15T10:01:14.413Z,10.40
2018-03-15T10:03:18.761Z,15.07
2018-03-15T10:05:22.349Z,13.53
2018-03-15T10:07:26.008Z,17.40
2018-03-15T10:09:29.544Z,16.40
2018-03-15T10:11:33.132Z,15.93
2018-03-15T10:13:36.685Z,16.83
2018-03-15T10:15:40.239Z,13.63
2018-03-15T10:17:43.894Z,15.07
2018-03-15T10:19:47.448Z,15.97
2018-03-15T10:21:51.012Z,17.10
2018-03-15T10:23:54.589Z,17.47
2018-03-15T10:25:58.913Z,17.20
2018-03-15T10:28:02.499Z,15.70
2018-03-15T10:30:06.110Z,16.40
2018-03-15T10:32:09.684Z,14.00
2018-03-15T10:34:13.269Z,16.97
2018-03-15T10:36:16.904Z,17.40
2018-03-15T10:38:21.214Z,15.27
2018-03-15T10:40:25.601Z,14.63
2018-03-15T10:42:29.206Z,14.07
2018-03-15T10:44:32.734Z,16.50
2018-03-15T10:46:36.326Z,17.03
2018-03-15T10:48:39.855Z,11.53
2018-03-15T10:50:43.405Z,16.17
2018-03-15T10:52:47.745Z,16.40
2018-03-15T10:54:51.293Z,16.73
2018-03-15T10:56:54.873Z,15.53
2018-03-15T10:58:58.447Z,18.07
2018-03-15T11:01:07.870Z,12.33
2018-03-15T11:03:17.360Z,16.10
2018-03-15T11:05:26.453Z,14.97
2018-03-15T11:07:40.025Z,18.57
2018-03-15T11:09:43.681Z,17.17
2018-03-15T11:11:47.264Z,18.90
2018-03-15T11:13:50.826Z,16.17
2018-03-15T11:15:55.227Z,17.37
2018-03-15T11:17:59.557Z,19.03
2018-03-15T11:20:03.128Z,16.00
2018-03-15T11:22:06.819Z,19.50
2018-03-15T11:24:10.346Z,18.50
2018-03-15T11:26:13.943Z,17.93
2018-03-15T11:28:17.545Z,16.80
2018-03-15T11:30:21.907Z,17.77
2018-03-15T11:32:25.552Z,17.53
2018-03-15T11:34:29.935Z,16.40
2018-03-15T11:36:33.510Z,19.67
2018-03-15T11:38:37.088Z,17.33
2018-03-15T11:40:40.667Z,16.37
2018-03-15T11:42:44.290Z,16.80
2018-03-15T11:44:47.832Z,16.87
2018-03-15T11:46:52.218Z,13.43
2018-03-15T11:48:55.769Z,16.87
2018-03-15T11:50:59.298Z,15.17
2018-03-15T11:53:03.678Z,16.63
2018-03-15T11:55:07.284Z,18.13
2018-03-15T11:57:10.883Z,18.00
2018-03-15T11:59:14.444Z,15.93
2018-03-15T12:01:17.987Z,19.10
2018-03-15T12:03:21.570Z,17.10
2018-03-15T12:05:25.119Z,15.37
2018-03-15T12:07:28.674Z,17.57
2018-03-15T12:09:32.256Z,17.80
2018-03-15T12:11:35.802Z,17.50
2018-03-15T12:13:39.335Z,17.93
2018-03-15T12:15:43.688Z,16.77
2018-03-15T12:17:47.268Z,18.30
2018-03-15T12:19:52.159Z,17.07
2018-03-15T12:21:55.759Z,17.93
2018-03-15T12:24:00.106Z,19.87
2018-03-15T12:26:03.708Z,18.97
2018-03-15T12:28:07.260Z,18.07
2018-03-15T12:30:10.799Z,16.70
2018-03-15T12:32:14.389Z,17.93
2018-03-15T12:34:17.990Z,17.90
2018-03-15T12:36:21.898Z,18.60
2018-03-15T12:38:25.428Z,17.90
2018-03-15T12:40:29.771Z,16.37
2018-03-15T12:42:33.359Z,19.73
2018-03-15T12:44:38.376Z,17.43
2018-03-15T12:46:41.970Z,17.93
2018-03-15T12:48:46.314Z,18.73
2018-03-15T12:50:50.673Z,18.10
2018-03-15T12:52:55.211Z,16.13
2018-03-15T12:54:58.765Z,17.73
2018-03-15T12:57:02.365Z,15.10
2018-03-15T12:59:05.916Z,17.63
2018-03-15T13:01:09.419Z,16.60
2018-03-15T13:03:13.749Z,18.50
2018-03-15T13:05:18.058Z,15.43
2018-03-15T13:07:21.663Z,17.50
2018-03-15T13:09:25.943Z,17.40
2018-03-15T13:11:29.479Z,19.13
2018-03-15T13:13:33.030Z,17.33
2018-03-15T13:15:37.391Z,15.20
2018-03-15T13:17:40.993Z,16.40
2018-03-15T13:19:44.499Z,17.93
2018-03-15T13:21:48.090Z,16.63
2018-03-15T13:23:51.637Z,17.80
2018-03-15T13:25:55.252Z,17.17
2018-03-15T13:27:58.857Z,17.07
2018-03-15T13:30:02.470Z,15.03
2018-03-15T13:32:06.055Z,15.27
2018-03-15T13:34:09.626Z,15.93
2018-03-15T13:36:13.225Z,16.07
2018-03-15T13:38:16.763Z,15.97
2018-03-15T13:40:20.346Z,16.03
2018-03-15T13:42:24.642Z,16.17
2018-03-15T13:44:28.978Z,17.50
2018-03-15T13:46:32.550Z,12.53
2018-03-15T13:48:36.092Z,15.93
2018-03-15T13:50:39.656Z,15.87
2018-03-15T13:52:43.967Z,15.43
2018-03-15T13:54:48.307Z,15.10
2018-03-15T13:56:51.915Z,16.27
2018-03-15T13:58:55.433Z,16.30
2018-03-15T14:00:58.953Z,16.60
2018-03-15T14:03:03.299Z,16.80
2018-03-15T14:05:06.904Z,15.97
2018-03-15T14:07:10.506Z,16.50
2018-03-15T14:09:14.011Z,16.00
2018-03-15T14:11:17.507Z,16.57
2018-03-15T14:13:21.086Z,17.37
2018-03-15T14:15:24.662Z,16.67
2018-03-15T14:17:28.976Z,15.20
2018-03-15T14:19:32.503Z,16.10
2018-03-15T14:21:36.057Z,16.30
2018-03-15T14:23:40.391Z,16.40
2018-03-15T14:25:43.911Z,17.23
2018-03-15T14:27:47.485Z,15.73
2018-03-15T14:29:51.171Z,15.37
2018-03-15T14:31:54.763Z,15.40
2018-03-15T14:33:59.104Z,15.37
2018-03-15T14:36:02.718Z,15.60
2018-03-15T14:38:06.294Z,16.47
2018-03-15T14:40:09.866Z,14.60
2018-03-15T14:42:13.436Z,16.00
2018-03-15T14:44:17.003Z,14.80
2018-03-15T14:46:20.623Z,16.07
2018-03-15T14:48:24.174Z,14.07
2018-03-15T14:50:30.028Z,14.07
2018-03-15T14:52:35.647Z,14.80
2018-03-15T14:54:39.212Z,14.13
2018-03-15T14:56:42.803Z,14.47
2018-03-15T14:58:46.362Z,14.03
2018-03-15T15:00:49.935Z,14.10
2018-03-15T15:02:55.714Z,14.03
2018-03-15T15:04:59.186Z,14.47
2018-03-15T15:07:03.538Z,13.43
2018-03-15T15:09:07.135Z,14.60
2018-03-15T15:11:11.484Z,13.73
2018-03-15T15:13:15.278Z,14.57
2018-03-15T15:15:19.619Z,15.30
2018-03-15T15:17:23.205Z,14.97
2018-03-15T15:19:26.815Z,14.57
2018-03-15T15:21:30.360Z,15.73
2018-03-15T15:23:33.880Z,14.77
2018-03-15T15:25:38.214Z,15.03
2018-03-15T15:27:42.527Z,12.87
2018-03-15T15:29:46.224Z,13.23
2018-03-15T15:31:50.518Z,14.20
2018-03-15T15:33:54.839Z,13.03
2018-03-15T15:35:58.587Z,14.00
2018-03-15T15:38:02.107Z,15.40
2018-03-15T15:40:05.735Z,15.57
2018-03-15T15:42:10.128Z,14.70
2018-03-15T15:44:13.717Z,15.47
2018-03-15T15:46:22.702Z,15.80
2018-03-15T15:48:31.596Z,15.73
2018-03-15T15:50:35.117Z,14.47
2018-03-15T15:52:39.838Z,14.93
2018-03-15T15:54:43.363Z,15.43
2018-03-15T15:56:48.502Z,15.33
2018-03-15T15:58:52.214Z,14.83
2018-03-15T16:00:57.371Z,16.07
2018-03-15T16:03:00.922Z,14.50
2018-03-15T16:05:05.440Z,15.27
2018-03-15T16:07:09.062Z,15.47
2018-03-15T16:09:12.564Z,15.80
2018-03-15T16:11:16.089Z,14.57
2018-03-15T16:13:20.374Z,16.47
2018-03-15T16:15:23.885Z,14.57
2018-03-15T16:17:28.208Z,14.70
2018-03-15T16:19:32.521Z,14.50
2018-03-15T16:21:36.796Z,15.40
2018-03-15T16:23:40.425Z,14.87
2018-03-15T16:25:44.002Z,15.43
2018-03-15T16:27:48.283Z,15.70
2018-03-15T16:29:51.839Z,15.27
2018-03-15T16:31:55.383Z,14.13
2018-03-15T16:33:58.970Z,15.57
2018-03-15T16:36:02.494Z,15.93
2018-03-15T16:38:06.106Z,15.73
2018-03-15T16:40:10.425Z,14.40
2018-03-15T16:42:14.724Z,15.07
2018-03-15T16:44:19.112Z,15.43
2018-03-15T16:46:22.613Z,15.67
2018-03-15T16:48:26.163Z,15.40
2018-03-15T16:50:29.729Z,16.53
2018-03-15T16:52:34.024Z,16.30
2018-03-15T16:54:37.560Z,14.60
2018-03-15T16:56:41.174Z,13.87
2018-03-15T16:58:44.672Z,16.13
2018-03-15T17:00:48.223Z,14.93
2018-03-15T17:02:52.532Z,15.03
2018-03-15T17:04:56.892Z,15.97
2018-03-15T17:07:00.386Z,15.80
2018-03-15T17:09:04.023Z,15.87
2018-03-15T17:11:07.544Z,16.87
2018-03-15T17:13:11.860Z,17.23
2018-03-15T17:15:15.465Z,16.00
2018-03-15T17:17:19.011Z,15.53
2018-03-15T17:19:22.525Z,16.77
2018-03-15T17:21:26.140Z,16.60
2018-03-15T17:23:30.464Z,17.97
2018-03-15T17:25:34.751Z,17.90
2018-03-15T17:27:38.293Z,17.23
2018-03-15T17:29:41.829Z,16.37
2018-03-15T17:31:46.186Z,17.27
2018-03-15T17:33:50.538Z,17.33
2018-03-15T17:35:54.055Z,17.87
2018-03-15T17:37:57.567Z,17.57
2018-03-15T17:40:01.122Z,16.87
2018-03-15T17:42:04.665Z,17.60
2018-03-15T17:44:08.995Z,17.60
2018-03-15T17:46:12.505Z,18.83
2018-03-15T17:48:16.098Z,18.03
2018-03-15T17:50:19.645Z,16.33
2018-03-15T17:52:23.983Z,18.40
2018-03-15T17:54:28.319Z,19.23
2018-03-15T17:56:31.879Z,17.73
2018-03-15T17:58:35.349Z,17.77
2018-03-15T18:00:38.852Z,18.03
2018-03-15T18:02:42.448Z,18.03
2018-03-15T18:04:45.970Z,18.27
2018-03-15T18:06:52.392Z,19.53
2018-03-15T18:08:56.365Z,18.67
2018-03-15T18:10:59.911Z,16.87
2018-03-15T18:13:03.426Z,21.63
2018-03-15T18:15:07.769Z,19.43
2018-03-15T18:17:11.323Z,18.37
2018-03-15T18:19:15.718Z,17.00
2018-03-15T18:21:19.298Z,17.23
2018-03-15T18:23:22.858Z,19.83
2018-03-15T18:25:26.429Z,20.30
2018-03-15T18:27:29.942Z,19.33
2018-03-15T18:29:34.351Z,19.20
2018-03-15T18:31:37.886Z,21.13
2018-03-15T18:33:41.416Z,18.50
2018-03-15T18:35:44.983Z,17.93
2018-03-15T18:37:49.253Z,19.13
2018-03-15T18:39:53.601Z,20.40
2018-03-15T18:41:57.177Z,19.10
2018-03-15T18:44:00.733Z,19.37
2018-03-15T18:46:04.271Z,18.60
2018-03-15T18:48:08.583Z,21.17
2018-03-15T18:50:12.097Z,19.90
2018-03-15T18:52:15.576Z,18.90
2018-03-15T18:54:19.152Z,19.47
2018-03-15T18:56:23.437Z,19.70
2018-03-15T18:58:27.006Z,17.00
2018-03-15T19:00:30.544Z,19.90
2018-03-15T19:02:34.062Z,19.37
2018-03-15T19:04:37.669Z,18.90
2018-03-15T19:06:41.288Z,18.47
2018-03-15T19:08:44.875Z,20.03
2018-03-15T19:10:48.422Z,18.00
2018-03-15T19:12:51.933Z,17.80
2018-03-15T19:14:56.260Z,18.30
2018-03-15T19:16:59.862Z,17.73
2018-03-15T19:19:03.421Z,19.17
2018-03-15T19:21:06.994Z,18.80
2018-03-15T19:23:10.565Z,19.20
2018-03-15T19:25:14.123Z,19.57
2018-03-15T19:27:18.401Z,19.50
2018-03-15T19:29:21.957Z,17.97
2018-03-15T19:31:25.458Z,18.47
2018-03-15T19:33:28.995Z,18.33
2018-03-15T19:35:32.534Z,18.33
2018-03-15T19:37:36.126Z,18.57
2018-03-15T19:39:40.446Z,18.30
2018-03-15T19:41:43.994Z,16.80
2018-03-15T19:43:47.619Z,16.83
2018-03-15T19:45:51.947Z,17.77
2018-03-15T19:47:56.267Z,18.97
2018-03-15T19:49:59.830Z,17.67
2018-03-15T19:52:03.328Z,17.67
2018-03-15T19:54:07.918Z,17.43
2018-03-15T19:56:11.472Z,18.13
2018-03-15T19:58:15.737Z,17.33
2018-03-15T20:00:19.318Z,18.17
2018-03-15T20:02:22.931Z,16.60
2018-03-15T20:04:26.473Z,16.00
2018-03-15T20:06:29.998Z,16.80
2018-03-15T20:08:33.531Z,18.27
2018-03-15T20:10:37.885Z,17.57
2018-03-15T20:12:41.407Z,17.40
2018-03-15T20:14:45.010Z,16.50
2018-03-15T20:16:48.797Z,17.27
2018-03-15T20:18:53.084Z,17.63
2018-03-15T20:20:56.676Z,16.63
2018-03-15T20:23:06.063Z,17.30
2018-03-15T20:25:09.619Z,18.83
2018-03-15T20:27:13.212Z,16.27
2018-03-15T20:29:16.819Z,17.60
2018-03-15T20:31:20.402Z,17.27
2018-03-15T20:36:04.853Z,17.20
2018-03-15T20:38:08.420Z,17.57
2018-03-15T20:40:17.537Z,15.53
2018-03-15T20:42:21.455Z,17.20
2018-03-15T20:44:25.115Z,17.00
2018-03-15T20:46:34.086Z,17.17
2018-03-15T20:48:44.061Z,17.10
2018-03-15T20:50:47.748Z,17.13
2018-03-15T20:52:51.240Z,15.83
2018-03-15T20:54:54.702Z,15.23
2018-03-15T20:56:58.140Z,16.13
2018-03-15T20:59:02.863Z,15.90
2018-03-15T21:01:06.401Z,15.93
2018-03-15T21:03:09.886Z,16.30
2018-03-15T21:05:13.767Z,14.63
2018-03-15T21:07:17.238Z,17.30
2018-03-15T21:09:20.713Z,16.23
2018-03-15T21:11:24.166Z,15.27
2018-03-15T21:13:27.671Z,16.40
2018-03-15T21:15:31.184Z,17.53
2018-03-15T21:17:34.681Z,15.47
2018-03-15T21:19:38.144Z,15.20
2018-03-15T21:21:42.437Z,16.20
2018-03-15T21:23:45.973Z,16.40
2018-03-15T21:25:49.498Z,16.93
2018-03-15T21:27:53.084Z,15.60
2018-03-15T21:29:57.397Z,16.17
2018-03-15T21:32:00.890Z,16.57
2018-03-15T21:34:05.276Z,15.60
2018-03-15T21:36:08.780Z,17.23
2018-03-15T21:38:12.324Z,16.00
2018-03-15T21:40:16.678Z,16.50
2018-03-15T21:42:20.265Z,13.93
2018-03-15T21:44:23.787Z,16.63
2018-03-15T21:46:27.368Z,16.90
2018-03-15T21:48:30.868Z,15.07
2018-03-15T21:50:34.438Z,18.57
2018-03-15T21:52:38.744Z,16.03
2018-03-15T21:54:42.326Z,17.00
2018-03-15T21:56:45.931Z,14.03
2018-03-15T21:58:49.428Z,15.97
2018-03-15T22:00:52.946Z,17.53
2018-03-15T22:02:56.481Z,15.83
2018-03-15T22:05:00.811Z,17.43
2018-03-15T22:07:05.164Z,17.67
2018-03-15T22:09:08.710Z,18.00
2018-03-15T22:11:13.020Z,17.70
2018-03-15T22:13:16.593Z,17.87
2018-03-15T22:15:20.194Z,18.37
2018-03-15T22:17:23.751Z,17.67
2018-03-15T22:19:27.320Z,18.03
2018-03-15T22:21:31.642Z,18.23
2018-03-15T22:23:35.168Z,17.33
2018-03-15T22:25:39.454Z,18.40
2018-03-15T22:27:43.051Z,18.00
2018-03-15T22:29:46.609Z,17.47
2018-03-15T22:31:50.286Z,17.33
2018-03-15T22:33:53.833Z,16.30
2018-03-15T22:35:58.191Z,17.20
2018-03-15T22:38:01.716Z,17.13
2018-03-15T22:40:06.416Z,17.23
2018-03-15T22:42:09.964Z,16.63
2018-03-15T22:44:13.531Z,16.47
2018-03-15T22:46:17.151Z,17.70
2018-03-15T22:48:20.756Z,17.47
2018-03-15T22:50:24.275Z,17.20
2018-03-15T22:52:28.672Z,18.43
2018-03-15T22:54:33.361Z,18.47
2018-03-15T22:56:38.600Z,13.97
2018-03-15T22:58:43.570Z,16.87
2018-03-15T23:00:47.086Z,15.90
2018-03-15T23:02:50.656Z,15.90
2018-03-15T23:04:54.200Z,19.50
2018-03-15T23:06:57.748Z,17.27
2018-03-15T23:09:01.298Z,17.13
2018-03-15T23:11:06.262Z,19.50
2018-03-15T23:13:12.510Z,18.73
2018-03-15T23:15:16.798Z,15.93
2018-03-15T23:17:20.342Z,20.33
2018-03-15T23:19:24.541Z,16.60
2018-03-15T23:21:28.108Z,19.83
2018-03-15T23:23:31.728Z,20.40
2018-03-15T23:25:35.295Z,19.07
2018-03-15T23:27:38.920Z,20.17
2018-03-15T23:29:45.955Z,17.93
2018-03-15T23:31:50.365Z,20.30
2018-03-15T23:33:55.233Z,18.50
2018-03-15T23:35:59.903Z,20.50
2018-03-15T23:38:03.467Z,16.20
2018-03-15T23:40:07.719Z,19.23
2018-03-15T23:42:11.407Z,19.17
2018-03-15T23:44:14.977Z,20.17
2018-03-15T23:46:20.197Z,18.90
2018-03-15T23:48:24.527Z,18.17
2018-03-15T23:50:28.111Z,19.73
2018-03-15T23:52:31.659Z,17.40
2018-03-15T23:54:37.262Z,19.63
2018-03-15T23:56:41.732Z,19.60
2018-03-15T23:58:47.172Z,18.50
